Relevés horaires Bierset (Belgique)


Relevés horaires à Bierset - Lundi 05 Mars 2018
Heure UTC1 Température [°C] Vent [km/h] Hum. [%] Pres.4 [hPa] Visi. [Km] Nébu. [octa] Préc.5 [mm] Cond.
2m. Res. Ros. Dir.2 Vit. Moy. Raf.3
23:00 5.8 4.8 1.2 SE 5.6 5.6 11.1 72 991.6(-1.1/3h) 30 3/8 -- --
22:00 6.4 5.5 1.6 SE 5.6 5.6 9.3 71 991.9(-0.8/3h) 30 3/8 -- --
21:00 6.6 5.7 1.6 ESE 5.6 5.6 20.4 70 992.1(-0.7/3h) 30 3/8 -- --
20:00 7.5 6.7 1.9 ESE 5.6 5.6 7.4 68 992.5(-0.2/3h) 30 3/8 -- --
19:00 8.1 8.1 1.9 E 3.7 3.7 5.6 65 992.6(0.1/3h) 30 4/8 -- --
18:00 8.6 8.6 2.1 ESE 3.7 13.0 16.7 64 992.7(-0.6/3h) 30 4/8 0/12h
--
17:00 9.6 9.6 2.6 SE 3.7 7.4 11.1 62 992.6(-0.8/3h) 30 5/8 -- --
16:00 10.0 9.6 2.0 SE 5.6 9.3 13.0 57 992.5(-1.4/3h) 30 5/8 -- --
15:00 10.7 9.6 3.0 S 9.3 13.0 16.7 59 993.1(-1.5/3h) 30 6/8 -- --
14:00 11.5 11.3 2.8 S 5.6 11.1 16.7 55 993.3(-1.9/3h) 30 6/8 -- --
13:00 10.2 9 2.5 S 9.3 13.0 16.7 59 993.9(-1.6/3h) 30 6/8 -- --
11:00 8.2 7 3.8 S 7.4 11.1 20.4 74 995.5(0.0/3h) 30 6/8 -- --
10:00 7.0 5.2 4.1 S 9.3 11.1 14.8 82 995.7(0.3/3h) 30 6/8 -- --
09:00 6.1 4.6 3.3 S 7.4 11.1 18.5 82 995.8(0.4/3h) 30 3/8 -- --
08:00 5.4 4.3 3.1 SSE 5.6 7.4 14.8 85 995.7(0.5/3h) 30 6/8 -- --
07:00 4.8 3.1 3.0 SSE 7.4 11.1 16.7 88 995.6(0.5/3h) 30 6/8 -- --
06:00 4.5 1.8 2.8 S 11.1 11.1 18.5 89 995.5(0.3/3h) 15 3/8 trace/12h
--
05:00 4.5 1.8 2.9 S 11.1 11.1 18.5 89 995.3(0.0/3h) 15 3/8 -- --
04:00 4.4 2.1 2.8 S 9.3 11.1 14.8 89 995.1(-0.3/3h) 15 3/8 -- --
03:00 5.0 2.8 3.0 S 9.3 11.1 18.5 87 995.1(-0.3/3h) 15 3/8 -- --
02:00 5.7 3.6 3.5 S 9.3 11.1 18.5 86 995.2(0.2/3h) 15 6/8 -- --
01:00 5.6 3.2 3.4 S 11.1 11.1 16.7 86 995.3(1.0/3h) 15 7/8 -- --
00:00 5.9 3.9 3.8 S 9.3 16.7 24.1 86 995.4(2.1/3h) 12 8/8 trace/6h
0.1/24h
Etat du ciel inchangé

1 Coordinated Universal Time. Actuellement il est 10:00 locale et 08:00 UTC.

2 Le vent souffle depuis la direction indiquée vers la direction oposée.

3 Les rafales max. sont disponible 40 min après l'heure du relevé.

4 Pour les stations d'altitude (plus de 600m) le géopotentiel du niveau le plus proche de la pression obligatoire est indiqué.

5 Les stations disposant d'un diffuseur peuvent indiquer "trace". Cela signifie que des précipitations ont touchés le sol mais que la quantité est inférieure à 0.1 mm.

Récapitulatif de la journée
Température [°C] Vent [km/h] Ensoleillement4 [h] Precipitations totale5 [mm] Pression [Hpa]
Min1 Max.2 Moy.3 Max. Min Max.
4.1 11.9 9.9 24.1 0 h 0 min 0 991.6 995.8

1 Température minimale relevée entre 18:00 UTC la veille et 18:00 UTC le jour donné.

2 Température maximale relevée entre 06:00 UTC le jour donné et 06:00 UTC le lendemain.

3 Vent moyen de la journée basé sur les relevés horaires.

4 Ensoleillement en heures relevé entre 06:00 UTC la veille et 06:00 UTC le jour donné.

5 Précipitations totales tombées entre 06:00 UTC la jour donné et 06:00 UTC le lendemain.

Graphiques horaires